Ralph Wenz Field
KPNA : now visible

Airfield :











YOU CAN JOIN US ON...

 
LOGIN :

Register | Disclaimer

   EN    FR    IT 

 









Legend :    VFR   Marginal VFR   IFR   Intensive IFR   Very Intensive IFR
Visi :
Ceiling :
>= 8 km
>= 3000ft
5 to 8 km
1000 to 3000 ft
1500m to 5 km
500 to 1000 ft
800 to 1500m
200 to 500 ft
< 800m
< 200 ft
Symbols :   Thunderstorms  Fog  Heavy snow  Heavy precipitations  Wind > 20 kt






- Airport Elevation : 7102 ft


KPNA - Ralph Wenz Field

CURRENT METAR :
  • 211235Z AUTO 31003KT 4SM -SN SCT022 SCT028 BKN045 M06/M06 A3003 RMK AO2

EXPIRED METARs :
  • 211215Z AUTO 00000KT 2 1/2SM -SN BKN022 BKN027 OVC034 M05/M05 A3003 RMK AO2
  • 211155Z AUTO 00000KT 4SM -SN OVC032 M04/M05 A3002 RMK AO2
  • 211135Z AUTO 00000KT 5SM -SN BKN032 OVC038 M04/M05 A3001 RMK AO2
  • 211115Z AUTO 28003KT 5SM -SN OVC038 M04/M05 A3001 RMK AO2
  • 211055Z AUTO 26004KT 5SM -SN BKN034 OVC040 M04/M05 A3000 RMK AO2
  • 211035Z AUTO 26005KT 3SM -SN SCT020 OVC030 M03/M05 A3001 RMK AO2
  • 211015Z AUTO 25005KT 3SM -SN BKN028 OVC033 M03/M05 A3001 RMK AO2

TAF KPNA
Valid from the 21 at 12:00 until the 22 at 12:00 UTC


211125Z 2112/2212 30008KT P6SM -SN BKN040
FM211600 30016G26KT P6SM BKN045
FM220100 30009KT P6SM BKN050 AMD LTD TO CLD VIS AND WIND



MET'MAP, your aeronautical weather chart ! - Copyright ORBIFLY December 2007 - Disclaimer

ORBIFLY MET'MAP TEAM :

Programming & Development : Alexandra Zaïnal
Concept & Development : Baudouin d'Aumeries
Co-Development & Prog : Marc-Olivier Méhu
Technical & hardware support : Manuel Goepfert

Contact : metmap@orbifly.com




SOURCES & CREDITS :

   NOAA       Earth
Advisory